Albert, Oklahoma
Current Conditions -  °F | °C
As of 6:15 AM on Sunday 25 Jan 2015 (Local Time) from KOJA Reporting Station
Clear Clear  
Wind Chill:   Ceiling: Unl
Heat Index:   Visibility: 10mi
Dew Point:   Wind: 15mph
Humidity: 66%   Direction: 280°W
Pressure: 30.01"   Gusts: NA
Location:  35.23°N, 98.41°W
Report Text: KOJA 251215Z AUTO 28013KT 10SM CLR 06/00 A3001 RMK AO2
Loading
Personal Weather Stations






























Interactive Weather Map New forecast layout! Learn more

10-Day Weather Forecast

Advertisements
Track Severe Weather on mobile